createdAt,value
2019-04-14T00:01:56.597Z,101374.00
2019-04-14T00:04:34.138Z,101365.00
2019-04-14T00:07:03.817Z,101376.00
2019-04-14T00:09:40.416Z,101362.00
2019-04-14T00:12:16.682Z,101369.00
2019-04-14T00:14:53.431Z,101370.00
2019-04-14T00:17:30.578Z,101371.00
2019-04-14T00:20:07.380Z,101379.00
2019-04-14T00:22:38.111Z,101369.00
2019-04-14T00:25:17.307Z,101361.00
2019-04-14T00:27:54.378Z,101368.00
2019-04-14T00:30:25.170Z,101392.00
2019-04-14T00:33:04.054Z,101364.00
2019-04-14T00:35:48.017Z,101359.00
2019-04-14T00:38:26.055Z,101361.00
2019-04-14T00:41:07.187Z,101363.00
2019-04-14T00:43:48.404Z,101386.00
2019-04-14T00:47:02.914Z,101369.00
2019-04-14T00:49:39.700Z,101368.00
2019-04-14T00:52:10.023Z,101361.00
2019-04-14T00:54:46.344Z,101365.00
2019-04-14T00:57:22.986Z,101355.00
2019-04-14T00:59:59.509Z,101363.00
2019-04-14T01:02:36.458Z,101356.00
2019-04-14T01:05:07.412Z,101363.00
2019-04-14T01:07:43.755Z,101362.00
2019-04-14T01:10:21.315Z,101356.00
2019-04-14T01:12:58.163Z,101365.00
2019-04-14T01:15:28.924Z,101365.00
2019-04-14T01:18:05.707Z,101360.00
2019-04-14T01:20:55.743Z,101364.00
2019-04-14T01:23:26.117Z,101356.00
2019-04-14T01:26:03.295Z,101363.00
2019-04-14T01:28:33.039Z,101362.00
2019-04-14T01:31:09.861Z,101365.00
2019-04-14T01:33:46.880Z,101365.00
2019-04-14T01:36:17.045Z,101372.00
2019-04-14T01:38:53.613Z,101181.00
2019-04-14T01:41:43.426Z,101369.00
2019-04-14T01:44:13.498Z,101361.00
2019-04-14T01:46:49.872Z,101368.00
2019-04-14T01:49:26.882Z,101364.00
2019-04-14T01:52:14.372Z,101362.00
2019-04-14T01:54:51.590Z,101356.00
2019-04-14T01:57:32.924Z,101361.00
2019-04-14T02:00:20.753Z,101361.00
2019-04-14T02:02:57.660Z,101360.00
2019-04-14T02:05:34.297Z,101358.00
2019-04-14T02:08:04.469Z,101363.00
2019-04-14T02:10:41.263Z,101359.00
2019-04-14T02:13:18.178Z,101366.00
2019-04-14T02:15:48.552Z,101367.00
2019-04-14T02:18:25.107Z,101364.00
2019-04-14T02:20:55.742Z,101377.00
2019-04-14T02:23:32.329Z,101371.00
2019-04-14T02:26:02.256Z,101376.00
2019-04-14T02:28:39.570Z,101277.00
2019-04-14T02:31:25.131Z,101373.00
2019-04-14T02:34:17.479Z,101370.00
2019-04-14T02:39:31.157Z,101372.00
2019-04-14T02:44:44.187Z,101381.00
2019-04-14T02:50:08.797Z,101376.00
2019-04-14T02:53:01.579Z,101378.00
2019-04-14T02:55:10.830Z,101387.00
2019-04-14T02:57:52.913Z,101377.00
2019-04-14T03:00:31.676Z,101386.00
2019-04-14T03:03:05.913Z,101382.00
2019-04-14T03:05:36.667Z,101385.00
2019-04-14T03:08:18.848Z,101381.00
2019-04-14T03:10:39.875Z,101390.00
2019-04-14T03:21:30.643Z,101396.00
2019-04-14T03:24:04.935Z,101399.00
2019-04-14T03:26:56.237Z,101399.00
2019-04-14T03:29:28.831Z,101396.00
2019-04-14T03:32:32.392Z,101393.00
2019-04-14T03:34:43.416Z,101397.00
2019-04-14T03:39:47.998Z,101399.00
2019-04-14T03:42:31.334Z,101400.00
2019-04-14T03:45:04.159Z,101400.00
2019-04-14T03:48:16.991Z,101399.00
2019-04-14T03:50:21.064Z,101403.00
2019-04-14T03:53:03.284Z,101405.00
2019-04-14T03:55:22.683Z,101405.00
2019-04-14T03:57:37.654Z,101414.00
2019-04-14T04:00:14.550Z,101413.00
2019-04-14T04:02:44.455Z,101452.00
2019-04-14T04:05:21.614Z,101426.00
2019-04-14T04:07:58.083Z,101447.00
2019-04-14T04:10:35.671Z,101422.00
2019-04-14T04:13:12.756Z,101428.00
2019-04-14T04:15:49.828Z,101422.00
2019-04-14T04:18:27.085Z,101453.00
2019-04-14T04:21:00.988Z,101418.00
2019-04-14T04:23:42.458Z,101427.00
2019-04-14T04:26:16.939Z,101422.00
2019-04-14T04:29:00.537Z,101424.00
2019-04-14T04:31:43.942Z,101432.00
2019-04-14T04:34:33.836Z,101430.00
2019-04-14T04:37:10.695Z,101429.00
2019-04-14T04:39:54.125Z,101439.00
2019-04-14T04:42:30.867Z,101448.00
2019-04-14T04:45:14.825Z,101447.00
2019-04-14T04:47:57.732Z,101433.00
2019-04-14T04:50:28.255Z,101439.00
2019-04-14T04:53:04.861Z,101449.00
2019-04-14T04:55:35.152Z,101451.00
2019-04-14T04:58:05.658Z,101450.00
2019-04-14T05:00:41.675Z,101458.00
2019-04-14T05:03:18.915Z,101459.00
2019-04-14T05:06:41.645Z,101463.00
2019-04-14T05:09:29.576Z,101472.00
2019-04-14T05:12:15.786Z,101461.00
2019-04-14T05:15:03.558Z,101468.00
2019-04-14T05:17:38.792Z,101471.00
2019-04-14T05:20:22.459Z,101475.00
2019-04-14T05:22:51.329Z,101479.00
2019-04-14T05:25:27.573Z,101474.00
2019-04-14T05:27:57.998Z,101484.00
2019-04-14T05:30:28.568Z,101482.00
2019-04-14T05:33:05.263Z,101481.00
2019-04-14T05:35:35.839Z,101486.00
2019-04-14T05:38:12.662Z,101490.00
2019-04-14T05:40:42.882Z,101494.00
2019-04-14T05:43:30.431Z,101496.00
2019-04-14T05:45:59.142Z,101495.00
2019-04-14T05:48:42.433Z,101503.00
2019-04-14T05:51:13.074Z,101506.00
2019-04-14T05:53:50.079Z,101497.00
2019-04-14T05:56:20.696Z,101495.00
2019-04-14T05:58:58.006Z,101501.00
2019-04-14T06:01:29.339Z,101501.00
2019-04-14T06:04:05.500Z,101504.00
2019-04-14T06:06:35.003Z,101512.00
2019-04-14T06:09:13.519Z,101514.00
2019-04-14T06:11:42.981Z,101522.00
2019-04-14T06:14:14.113Z,101518.00
2019-04-14T06:16:50.449Z,101522.00
2019-04-14T06:19:19.909Z,101527.00
2019-04-14T06:22:02.589Z,101529.00
2019-04-14T06:24:32.186Z,101531.00
2019-04-14T06:27:01.637Z,101536.00
2019-04-14T06:29:37.328Z,101535.00
2019-04-14T06:32:23.567Z,101561.00
2019-04-14T06:35:01.131Z,101540.00
2019-04-14T06:37:44.447Z,101533.00
2019-04-14T06:40:21.081Z,101538.00
2019-04-14T06:42:50.538Z,101545.00
2019-04-14T06:45:26.752Z,101538.00
2019-04-14T06:48:02.939Z,101548.00
2019-04-14T06:50:39.276Z,101554.00
2019-04-14T06:53:08.813Z,101551.00
2019-04-14T06:55:45.397Z,101554.00
2019-04-14T06:58:21.811Z,101562.00
2019-04-14T07:00:51.405Z,101557.00
2019-04-14T07:03:28.090Z,101555.00
2019-04-14T07:06:04.786Z,101556.00
2019-04-14T07:08:34.255Z,101556.00
2019-04-14T07:11:10.850Z,101561.00
2019-04-14T07:13:40.389Z,101561.00
2019-04-14T07:16:23.389Z,101566.00
2019-04-14T07:18:52.935Z,101562.00
2019-04-14T07:21:29.548Z,101566.00
2019-04-14T07:23:59.077Z,101572.00
2019-04-14T07:26:35.566Z,101571.00
2019-04-14T07:29:05.237Z,101567.00
2019-04-14T07:31:58.539Z,101569.00
2019-04-14T07:34:29.701Z,101575.00
2019-04-14T07:37:13.276Z,101573.00
2019-04-14T07:39:44.439Z,101576.00
2019-04-14T07:42:25.154Z,101581.00
2019-04-14T07:45:14.304Z,101584.00
2019-04-14T07:48:07.008Z,101586.00
2019-04-14T07:51:32.002Z,101588.00
2019-04-14T07:54:05.677Z,101575.00
2019-04-14T07:56:59.290Z,101593.00
2019-04-14T07:59:36.934Z,101600.00
2019-04-14T08:02:08.145Z,101599.00
2019-04-14T08:04:39.370Z,101596.00
2019-04-14T08:07:15.570Z,101596.00
2019-04-14T08:09:45.121Z,101589.00
2019-04-14T08:12:21.196Z,101590.00
2019-04-14T08:14:52.408Z,101599.00
2019-04-14T08:17:28.416Z,101589.00
2019-04-14T08:19:58.028Z,101591.00
2019-04-14T08:22:40.432Z,101602.00
2019-04-14T08:25:10.037Z,101598.00
2019-04-14T08:27:46.138Z,101592.00
2019-04-14T08:30:16.314Z,101603.00
2019-04-14T08:32:52.278Z,101594.00
2019-04-14T08:35:21.831Z,101602.00
2019-04-14T08:37:58.474Z,101593.00
2019-04-14T08:40:35.176Z,101614.00
2019-04-14T08:43:24.421Z,101599.00
2019-04-14T08:46:13.982Z,101594.00
2019-04-14T08:48:47.790Z,101606.00
2019-04-14T08:51:31.476Z,101608.00
2019-04-14T08:54:15.828Z,101607.00
2019-04-14T08:56:47.108Z,101603.00
2019-04-14T08:59:24.701Z,101607.00
2019-04-14T09:02:04.619Z,101609.00
2019-04-14T09:04:50.278Z,101616.00
2019-04-14T09:07:33.720Z,101608.00
2019-04-14T09:10:10.993Z,101609.00
2019-04-14T09:12:49.382Z,101612.00
2019-04-14T09:15:19.075Z,101609.00
2019-04-14T09:17:54.907Z,101616.00
2019-04-14T09:20:24.519Z,101603.00
2019-04-14T09:23:06.957Z,101622.00
2019-04-14T09:25:36.612Z,101618.00
2019-04-14T09:28:13.237Z,101612.00
2019-04-14T09:30:42.916Z,101620.00
2019-04-14T09:33:18.765Z,101584.00
2019-04-14T09:35:48.256Z,101627.00
2019-04-14T09:38:17.798Z,101622.00
2019-04-14T09:40:54.331Z,101616.00
2019-04-14T09:43:30.533Z,101621.00
2019-04-14T09:46:00.048Z,101429.00
2019-04-14T09:48:35.710Z,101621.00
2019-04-14T09:51:05.424Z,101624.00
2019-04-14T09:53:48.521Z,101613.00
2019-04-14T09:56:31.317Z,101624.00
2019-04-14T09:59:00.933Z,101622.00
2019-04-14T10:01:37.793Z,101624.00
2019-04-14T10:04:07.407Z,101618.00
2019-04-14T10:06:43.726Z,101623.00
2019-04-14T10:09:13.640Z,101615.00
2019-04-14T10:11:53.696Z,101523.00
2019-04-14T10:14:21.418Z,101626.00
2019-04-14T10:16:57.870Z,101624.00
2019-04-14T10:19:27.405Z,101622.00
2019-04-14T10:22:03.645Z,101619.00
2019-04-14T10:24:36.329Z,101619.00
2019-04-14T10:27:18.764Z,101629.00
2019-04-14T10:29:48.241Z,101629.00
2019-04-14T10:32:17.945Z,101631.00
2019-04-14T10:34:54.214Z,101632.00
2019-04-14T10:37:23.686Z,101631.00
2019-04-14T10:39:59.933Z,101623.00
2019-04-14T10:42:29.542Z,101624.00
2019-04-14T10:45:05.353Z,101621.00
2019-04-14T10:47:35.148Z,101632.00
2019-04-14T10:50:12.578Z,101618.00
2019-04-14T10:52:42.120Z,101624.00
2019-04-14T10:55:25.224Z,101623.00
2019-04-14T10:57:54.853Z,101595.00
2019-04-14T11:00:30.771Z,101630.00
2019-04-14T11:03:07.245Z,101631.00
2019-04-14T11:05:50.502Z,101627.00
2019-04-14T11:08:26.943Z,101626.00
2019-04-14T11:10:56.566Z,101628.00
2019-04-14T11:13:33.060Z,101628.00
2019-04-14T11:16:09.643Z,101628.00
2019-04-14T11:18:45.626Z,101630.00
2019-04-14T11:21:22.213Z,101624.00
2019-04-14T11:23:51.788Z,101626.00
2019-04-14T11:26:28.055Z,101629.00
2019-04-14T11:28:57.530Z,101619.00
2019-04-14T11:31:52.966Z,101630.00
2019-04-14T11:34:33.150Z,101621.00
2019-04-14T11:37:10.921Z,101627.00
2019-04-14T11:39:40.818Z,101626.00
2019-04-14T11:42:10.506Z,101619.00
2019-04-14T11:44:46.661Z,101627.00
2019-04-14T11:47:16.492Z,101627.00
2019-04-14T11:49:45.995Z,101620.00
2019-04-14T11:52:29.138Z,101618.00
2019-04-14T11:55:04.819Z,101647.00
2019-04-14T11:57:41.375Z,101608.00
2019-04-14T12:00:38.066Z,101625.00
2019-04-14T12:03:15.055Z,101623.00
2019-04-14T12:05:53.235Z,101626.00
2019-04-14T12:08:24.501Z,101622.00
2019-04-14T12:11:00.956Z,101623.00
2019-04-14T12:13:30.444Z,101617.00
2019-04-14T12:16:06.639Z,101619.00
2019-04-14T12:18:36.184Z,101629.00
2019-04-14T12:21:12.495Z,101621.00
2019-04-14T12:23:54.884Z,101628.00
2019-04-14T12:26:24.415Z,101622.00
2019-04-14T12:29:01.994Z,101639.00
2019-04-14T12:31:44.392Z,101619.00
2019-04-14T12:34:20.264Z,101628.00
2019-04-14T12:36:49.793Z,101626.00
2019-04-14T12:39:31.414Z,101631.00
2019-04-14T12:42:24.602Z,101626.00
2019-04-14T12:44:58.386Z,101624.00
2019-04-14T12:47:40.124Z,101617.00
2019-04-14T12:50:12.576Z,101629.00
2019-04-14T12:52:48.995Z,101617.00
2019-04-14T12:55:18.649Z,101563.00
2019-04-14T12:58:06.119Z,101618.00
2019-04-14T13:00:51.055Z,101652.00
2019-04-14T13:03:21.063Z,101635.00
2019-04-14T13:05:57.018Z,101623.00
2019-04-14T13:08:33.127Z,101619.00
2019-04-14T13:11:02.797Z,101634.00
2019-04-14T13:13:39.437Z,101643.00
2019-04-14T13:16:09.073Z,101634.00
2019-04-14T13:19:02.361Z,101631.00
2019-04-14T13:21:32.232Z,101623.00
2019-04-14T13:24:05.192Z,101627.00
2019-04-14T13:26:41.819Z,101630.00
2019-04-14T13:29:19.684Z,101636.00
2019-04-14T13:31:57.592Z,101444.00
2019-04-14T13:34:30.475Z,101642.00
2019-04-14T13:37:09.995Z,101642.00
2019-04-14T13:39:39.852Z,101637.00
2019-04-14T13:42:16.654Z,101633.00
2019-04-14T13:44:52.913Z,101642.00
2019-04-14T13:47:23.188Z,101631.00
2019-04-14T13:49:59.719Z,101641.00
2019-04-14T13:52:30.938Z,101634.00
2019-04-14T13:55:07.732Z,101646.00
2019-04-14T13:57:50.283Z,101643.00
2019-04-14T14:00:20.719Z,101642.00
2019-04-14T14:02:57.351Z,101631.00
2019-04-14T14:05:33.082Z,101630.00
2019-04-14T14:08:09.829Z,101632.00
2019-04-14T14:10:39.422Z,101644.00
2019-04-14T14:13:17.234Z,101634.00
2019-04-14T14:16:04.323Z,101625.00
2019-04-14T14:18:48.600Z,101630.00
2019-04-14T14:21:34.868Z,101632.00
2019-04-14T14:24:28.959Z,101639.00
2019-04-14T14:27:03.016Z,101636.00
2019-04-14T14:29:39.299Z,101638.00
2019-04-14T14:32:10.391Z,101641.00
2019-04-14T14:34:46.068Z,101644.00
2019-04-14T14:37:15.598Z,101643.00
2019-04-14T14:39:52.134Z,101630.00
2019-04-14T14:42:21.622Z,101634.00
2019-04-14T14:45:04.908Z,101633.00
2019-04-14T14:47:41.589Z,101627.00
2019-04-14T14:50:19.338Z,101634.00
2019-04-14T14:52:55.645Z,101621.00
2019-04-14T14:55:38.406Z,101629.00
2019-04-14T14:58:21.189Z,101623.00
2019-04-14T15:00:57.898Z,101624.00
2019-04-14T15:03:27.529Z,101624.00
2019-04-14T15:06:03.738Z,101625.00
2019-04-14T15:08:33.339Z,101624.00
2019-04-14T15:11:04.318Z,101629.00
2019-04-14T15:13:40.933Z,101634.00
2019-04-14T15:16:10.619Z,101637.00
2019-04-14T15:18:47.254Z,101632.00
2019-04-14T15:21:16.865Z,101634.00
2019-04-14T15:23:52.739Z,101640.00
2019-04-14T15:26:22.336Z,101637.00
2019-04-14T15:28:58.004Z,101633.00
2019-04-14T15:31:27.596Z,101645.00
2019-04-14T15:34:03.863Z,101638.00
2019-04-14T15:36:33.411Z,101643.00
2019-04-14T15:39:11.105Z,101642.00
2019-04-14T15:41:40.837Z,101635.00
2019-04-14T15:44:17.099Z,101631.00
2019-04-14T15:46:46.635Z,101628.00
2019-04-14T15:49:22.757Z,101631.00
2019-04-14T15:51:59.360Z,101617.00
2019-04-14T15:54:35.893Z,101635.00
2019-04-14T15:57:32.899Z,101630.00
2019-04-14T16:00:20.777Z,101633.00
2019-04-14T16:03:01.734Z,101639.00
2019-04-14T16:05:39.251Z,101631.00
2019-04-14T16:08:10.547Z,101636.00
2019-04-14T16:10:54.246Z,101633.00
2019-04-14T16:13:34.240Z,101633.00
2019-04-14T16:16:14.309Z,101628.00
2019-04-14T16:18:54.938Z,101633.00
2019-04-14T16:21:24.543Z,101632.00
2019-04-14T16:24:00.566Z,101632.00
2019-04-14T16:26:31.810Z,101633.00
2019-04-14T16:29:24.951Z,101637.00
2019-04-14T16:32:05.721Z,101639.00
2019-04-14T16:34:43.294Z,101636.00
2019-04-14T16:37:19.869Z,101638.00
2019-04-14T16:39:49.331Z,101631.00
2019-04-14T16:42:25.814Z,101634.00
2019-04-14T16:44:55.495Z,101637.00
2019-04-14T16:47:31.677Z,101638.00
2019-04-14T16:50:01.203Z,101641.00
2019-04-14T16:52:47.625Z,101636.00
2019-04-14T16:55:34.592Z,101640.00
2019-04-14T16:58:15.380Z,101648.00
2019-04-14T17:00:59.640Z,101649.00
2019-04-14T17:03:29.158Z,101646.00
2019-04-14T17:06:05.627Z,101645.00
2019-04-14T17:08:35.299Z,101647.00
2019-04-14T17:11:12.257Z,101643.00
2019-04-14T17:13:43.506Z,101640.00
2019-04-14T17:16:33.326Z,101649.00
2019-04-14T17:19:19.339Z,101658.00
2019-04-14T17:21:57.093Z,101512.00
2019-04-14T17:24:37.272Z,101649.00
2019-04-14T17:27:21.952Z,101656.00
2019-04-14T17:29:59.035Z,101653.00
2019-04-14T17:32:40.059Z,101656.00
2019-04-14T17:35:11.370Z,101657.00
2019-04-14T17:37:42.537Z,101654.00
2019-04-14T17:40:20.826Z,101658.00
2019-04-14T17:42:52.092Z,101645.00
2019-04-14T17:45:50.606Z,101668.00
2019-04-14T17:48:20.833Z,101669.00
2019-04-14T17:51:07.009Z,101675.00
2019-04-14T17:53:38.319Z,101677.00
2019-04-14T17:56:18.600Z,101679.00
2019-04-14T17:59:08.300Z,101680.00
2019-04-14T18:01:51.959Z,101683.00
2019-04-14T18:04:39.131Z,101688.00
2019-04-14T18:07:19.273Z,101683.00
2019-04-14T18:10:08.679Z,101688.00
2019-04-14T18:12:39.785Z,101687.00
2019-04-14T18:15:23.639Z,101692.00
2019-04-14T18:18:17.247Z,101473.00
2019-04-14T18:20:55.117Z,101697.00
2019-04-14T18:23:31.316Z,101696.00
2019-04-14T18:26:08.180Z,101710.00
2019-04-14T18:28:39.501Z,101699.00
2019-04-14T18:31:28.797Z,101740.00
2019-04-14T18:34:21.461Z,101706.00
2019-04-14T18:37:00.205Z,101705.00
2019-04-14T18:39:53.385Z,101701.00
2019-04-14T18:42:30.682Z,101698.00
2019-04-14T18:45:02.227Z,101712.00
2019-04-14T18:47:42.535Z,101716.00
2019-04-14T18:50:26.527Z,101706.00
2019-04-14T18:53:10.620Z,101713.00
2019-04-14T18:55:51.608Z,101707.00
2019-04-14T18:58:45.689Z,101715.00
2019-04-14T19:01:23.018Z,101725.00
2019-04-14T19:04:07.184Z,101716.00
2019-04-14T19:06:36.729Z,101719.00
2019-04-14T19:09:20.058Z,101721.00
2019-04-14T19:11:57.178Z,101723.00
2019-04-14T19:14:35.138Z,101729.00
2019-04-14T19:17:09.276Z,101718.00
2019-04-14T19:19:46.591Z,101723.00
2019-04-14T19:22:29.455Z,101726.00
2019-04-14T19:25:08.408Z,101722.00
2019-04-14T19:27:44.622Z,101721.00
2019-04-14T19:30:21.146Z,101760.00
2019-04-14T19:32:50.764Z,101738.00
2019-04-14T19:35:33.752Z,101738.00
2019-04-14T19:38:09.432Z,101726.00
2019-04-14T19:40:45.150Z,101740.00
2019-04-14T19:43:23.909Z,101735.00
2019-04-14T19:45:53.040Z,101740.00
2019-04-14T19:48:22.650Z,101745.00
2019-04-14T19:50:58.403Z,101746.00
2019-04-14T19:53:34.495Z,101742.00
2019-04-14T19:56:10.209Z,101743.00
2019-04-14T19:58:46.238Z,101744.00
2019-04-14T20:01:15.841Z,101752.00
2019-04-14T20:03:51.640Z,101739.00
2019-04-14T20:06:21.174Z,101742.00
2019-04-14T20:08:58.844Z,101738.00
2019-04-14T20:11:28.493Z,101735.00
2019-04-14T20:14:04.703Z,101747.00
2019-04-14T20:16:38.759Z,101742.00
2019-04-14T20:19:38.014Z,101748.00
2019-04-14T20:22:12.113Z,101747.00
2019-04-14T20:24:55.654Z,101742.00
2019-04-14T20:27:38.387Z,101745.00
2019-04-14T20:30:22.500Z,101742.00
2019-04-14T20:32:52.113Z,101745.00
2019-04-14T20:35:21.644Z,101743.00
2019-04-14T20:37:58.243Z,101746.00
2019-04-14T20:40:34.773Z,101740.00
2019-04-14T20:43:17.695Z,101745.00
2019-04-14T20:45:47.299Z,101745.00
2019-04-14T20:48:23.097Z,101739.00
2019-04-14T20:50:52.621Z,101748.00
2019-04-14T20:53:29.300Z,101748.00
2019-04-14T20:56:05.867Z,101740.00
2019-04-14T20:58:35.673Z,101751.00
2019-04-14T21:01:06.922Z,101750.00
2019-04-14T21:03:48.030Z,101733.00
2019-04-14T21:06:46.788Z,101748.00
2019-04-14T21:09:36.477Z,101753.00
2019-04-14T21:12:07.712Z,101754.00
2019-04-14T21:15:01.989Z,101750.00
2019-04-14T21:17:36.117Z,101745.00
2019-04-14T21:20:19.957Z,101758.00
2019-04-14T21:23:00.955Z,101747.00
2019-04-14T21:25:41.783Z,101750.00
2019-04-14T21:28:24.928Z,101744.00
2019-04-14T21:31:08.249Z,101751.00
2019-04-14T21:33:51.081Z,101752.00
2019-04-14T21:36:28.365Z,101756.00
2019-04-14T21:39:11.072Z,101749.00
2019-04-14T21:41:48.810Z,101752.00
2019-04-14T21:44:18.294Z,101762.00
2019-04-14T21:46:47.742Z,101748.00
2019-04-14T21:49:23.737Z,101749.00
2019-04-14T21:52:13.811Z,101754.00
2019-04-14T21:54:50.912Z,101755.00
2019-04-14T21:57:40.323Z,101757.00
2019-04-14T22:00:42.966Z,101762.00
2019-04-14T22:03:19.840Z,101759.00
2019-04-14T22:06:14.299Z,101765.00
2019-04-14T22:08:58.320Z,101761.00
2019-04-14T22:11:35.097Z,101760.00
2019-04-14T22:14:04.698Z,101762.00
2019-04-14T22:16:35.817Z,101762.00
2019-04-14T22:19:12.336Z,101762.00
2019-04-14T22:21:48.965Z,101775.00
2019-04-14T22:24:18.483Z,101769.00
2019-04-14T22:26:55.000Z,101770.00
2019-04-14T22:29:24.624Z,101769.00
2019-04-14T22:31:54.216Z,101770.00
2019-04-14T22:34:29.834Z,101771.00
2019-04-14T22:37:05.600Z,101772.00
2019-04-14T22:39:35.123Z,101762.00
2019-04-14T22:42:04.644Z,101774.00
2019-04-14T22:44:40.470Z,101763.00
2019-04-14T22:47:17.076Z,101764.00
2019-04-14T22:49:52.924Z,101774.00
2019-04-14T22:52:29.372Z,101769.00
2019-04-14T22:55:04.910Z,101778.00
2019-04-14T22:57:40.644Z,101774.00
2019-04-14T23:00:16.172Z,101770.00
2019-04-14T23:03:12.781Z,101770.00
2019-04-14T23:06:05.936Z,101766.00
2019-04-14T23:08:43.081Z,101764.00
2019-04-14T23:11:36.792Z,101765.00
2019-04-14T23:14:30.055Z,101709.00
2019-04-14T23:17:17.013Z,101764.00
2019-04-14T23:19:48.169Z,101681.00
2019-04-14T23:22:37.322Z,101763.00
2019-04-14T23:25:13.575Z,101759.00
2019-04-14T23:27:49.923Z,101758.00
2019-04-14T23:30:19.448Z,101759.00
2019-04-14T23:32:55.474Z,101759.00
2019-04-14T23:35:31.057Z,101766.00
2019-04-14T23:38:00.645Z,101757.00
2019-04-14T23:40:36.686Z,101771.00
2019-04-14T23:43:12.586Z,101769.00
2019-04-14T23:45:42.192Z,101767.00
2019-04-14T23:48:18.554Z,101777.00
2019-04-14T23:50:54.669Z,101773.00
2019-04-14T23:53:24.189Z,101770.00
2019-04-14T23:55:59.831Z,101777.00
2019-04-14T23:58:42.313Z,101768.00
